Terminal Aerodrome Forecast
Issued by NWS Dallas/Fort Worth, TX

Home | Current Version | Previous Version | Text Only | Print | Product List | Glossary On
Versions: 1 2 3 4 5 6 7 8 9 10 11 12 13 14 15 16 17 18 19 20 21 22 23 24
000
FTUS44 KFWD 010800 AAA
TAFACT
TAF AMD
KACT 010859Z 0109/0206 17014KT 4SM BR VCSH OVC008
      TEMPO 0109/0112 5SM BR SCT008 OVC019
     FM011300 18010KT 5SM BR VCSH OVC008
     FM011500 20012KT P6SM OVC015
     FM011800 34020G30KT P6SM BKN020
     FM012300 35016G26KT P6SM SCT250=

USA.gov is the U.S. government's official web portal to all federal, state and local government web resources and services.